Time;durP1;ratioP1;P1;durP2;ratioP2;P2;SDS_P1;SDS_P2;PMS_P1;PMS_P2;Temp;Humidity;BMP_temperature;BMP_pressure;BME280_temperature;BME280_humidity;BME280_pressure;Samples;Min_cycle;Max_cycle;Signal;HPM_P1;HPM_P2
2022/05/21 00:01:02;;;;;;;0.40;0.20;;;;;;;16.85;83.42;100724.25;5021113;28;20875;-53
2022/05/21 00:03:29;;;;;;;0.40;0.20;;;;;;;16.89;83.24;100711.56;5021497;28;20920;-52
2022/05/21 00:05:55;;;;;;;0.40;0.20;;;;;;;16.80;82.51;100710.19;5021199;28;20525;-53
2022/05/21 00:08:22;;;;;;;0.50;0.40;;;;;;;16.45;83.69;100724.38;5034418;28;20451;-54
2022/05/21 00:10:49;;;;;;;0.40;0.20;;;;;;;16.29;83.65;100717.00;5037996;28;20509;-53
2022/05/21 00:13:16;;;;;;;0.40;0.20;;;;;;;16.26;84.12;100709.09;5039717;28;20505;-53
2022/05/21 00:15:42;;;;;;;0.40;0.20;;;;;;;16.00;85.20;100709.38;5020972;28;20957;-53
2022/05/21 00:18:09;;;;;;;0.40;0.20;;;;;;;15.94;85.34;100715.91;5033357;28;20973;-54
2022/05/21 00:20:47;;;;;;;0.40;0.20;;;;;;;16.00;86.09;100715.63;5021914;28;20521;-53
2022/05/21 00:23:16;;;;;;;0.40;0.20;;;;;;;16.04;86.14;100715.50;5021140;28;20518;-54
2022/05/21 00:25:45;;;;;;;0.40;0.20;;;;;;;15.89;86.94;100709.84;5024596;28;20490;-53
2022/05/21 00:28:12;;;;;;;0.40;0.20;;;;;;;15.90;86.94;100716.09;5027305;28;20954;-53
2022/05/21 00:30:39;;;;;;;0.50;0.30;;;;;;;15.75;87.80;100706.03;5024055;28;20452;-53
2022/05/21 00:33:06;;;;;;;5.33;0.87;;;;;;;15.85;87.30;100716.28;5020684;28;20837;-54
2022/05/21 00:35:33;;;;;;;0.40;0.20;;;;;;;15.92;88.17;100727.63;5023817;28;20526;-53
2022/05/21 00:38:00;;;;;;;0.40;0.20;;;;;;;16.03;86.63;100728.00;5030945;28;20491;-53
2022/05/21 00:40:27;;;;;;;0.40;0.20;;;;;;;16.02;87.34;100720.91;5023432;28;20453;-53
2022/05/21 00:42:54;;;;;;;0.50;0.40;;;;;;;15.96;87.63;100731.91;5027066;28;20457;-53
2022/05/21 00:45:21;;;;;;;0.40;0.20;;;;;;;15.94;86.79;100733.78;5025220;28;20851;-54
2022/05/21 00:47:48;;;;;;;0.40;0.30;;;;;;;16.07;88.16;100736.81;5020318;28;20992;-53
2022/05/21 00:50:17;;;;;;;0.40;0.20;;;;;;;16.05;87.06;100739.56;5022593;28;20797;-53
2022/05/21 00:52:46;;;;;;;0.47;0.30;;;;;;;15.98;88.00;100743.44;5027262;28;20480;-53
2022/05/21 00:55:18;;;;;;;0.40;0.20;;;;;;;16.24;86.34;100747.66;5026044;28;20924;-53
2022/05/21 00:59:47;;;;;;;1.23;0.83;;;;;;;16.14;85.94;100751.69;5026711;28;20473;-53
2022/05/21 01:00:41;;;;;;;0.40;0.20;;;;;;;16.03;86.12;100746.78;5026939;28;20457;-54
2022/05/21 01:03:08;;;;;;;0.50;0.33;;;;;;;16.11;85.14;100749.13;5024528;28;20487;-53
2022/05/21 01:05:37;;;;;;;0.40;0.20;;;;;;;16.10;84.54;100753.63;5019893;28;20810;-53
2022/05/21 01:08:04;;;;;;;0.40;0.20;;;;;;;15.93;84.51;100758.88;5033368;28;20478;-53
2022/05/21 01:10:36;;;;;;;0.40;0.20;;;;;;;16.29;84.46;100761.72;5033358;28;20446;-53
2022/05/21 01:13:09;;;;;;;0.50;0.40;;;;;;;16.11;83.32;100758.06;5041279;28;20467;-53
2022/05/21 01:15:45;;;;;;;0.50;0.50;;;;;;;15.89;85.24;100767.97;5019993;28;20519;-53
2022/05/21 01:18:12;;;;;;;0.40;0.20;;;;;;;15.77;86.57;100764.03;5032125;28;20475;-53
2022/05/21 01:20:47;;;;;;;0.40;0.20;;;;;;;15.99;85.54;100761.28;5021274;28;20498;-53
2022/05/21 01:23:16;;;;;;;0.40;0.30;;;;;;;15.74;84.87;100769.47;5019972;28;20510;-52
2022/05/21 01:25:44;;;;;;;0.57;0.57;;;;;;;15.78;85.56;100760.41;5023497;28;20925;-53
2022/05/21 01:28:13;;;;;;;0.40;0.20;;;;;;;15.67;85.25;100768.88;5025644;28;20456;-53
2022/05/21 01:30:46;;;;;;;0.40;0.20;;;;;;;15.95;84.11;100767.72;5023497;28;20451;-54
2022/05/21 01:33:17;;;;;;;0.40;0.20;;;;;;;15.58;85.74;100771.91;5019559;28;20517;-53
2022/05/21 01:35:45;;;;;;;0.57;0.57;;;;;;;15.60;86.95;100767.38;5021237;28;20530;-53
2022/05/21 01:38:14;;;;;;;0.40;0.20;;;;;;;15.66;86.71;100777.88;5031675;28;20447;-53
2022/05/21 01:40:41;;;;;;;0.50;0.50;;;;;;;15.48;87.22;100772.34;5020565;28;20452;-53
2022/05/21 01:45:54;;;;;;;0.40;0.20;;;;;;;15.16;88.65;100782.56;5025738;28;20475;-53
2022/05/21 01:48:24;;;;;;;0.40;0.20;;;;;;;15.29;89.00;100775.78;5021680;28;20452;-53
2022/05/21 01:50:52;;;;;;;1.70;1.43;;;;;;;15.13;89.18;100776.47;5019403;28;20448;-53
2022/05/21 01:53:21;;;;;;;0.40;0.20;;;;;;;15.15;89.31;100774.59;5025721;28;20511;-53
2022/05/21 01:55:49;;;;;;;1.50;0.77;;;;;;;15.17;90.00;100778.94;5028937;28;20906;-52
2022/05/21 01:58:17;;;;;;;0.40;0.30;;;;;;;15.24;89.81;100784.94;5022398;28;20999;-53
2022/05/21 02:00:44;;;;;;;0.83;0.83;;;;;;;15.14;89.71;100781.75;5025888;28;20460;-53
2022/05/21 02:03:13;;;;;;;0.40;0.20;;;;;;;15.32;88.55;100786.34;5022991;28;20452;-53
2022/05/21 02:05:44;;;;;;;0.40;0.20;;;;;;;15.11;89.29;100792.59;5019007;28;20443;-53
2022/05/21 02:08:13;;;;;;;0.50;0.30;;;;;;;15.30;88.08;100788.22;5032406;28;20448;-53
2022/05/21 02:10:41;;;;;;;0.40;0.20;;;;;;;15.28;88.24;100789.22;5034611;28;20823;-53
2022/05/21 02:13:16;;;;;;;0.40;0.20;;;;;;;15.05;88.19;100782.97;5039331;28;20463;-52
2022/05/21 02:15:44;;;;;;;0.40;0.20;;;;;;;15.05;88.51;100790.13;5019595;28;20491;-53
2022/05/21 02:18:12;;;;;;;0.40;0.20;;;;;;;15.00;88.19;100787.63;5031756;28;20479;-52
2022/05/21 02:20:39;;;;;;;0.40;0.20;;;;;;;14.98;88.68;100785.97;5020081;28;20462;-53
2022/05/21 02:23:06;;;;;;;0.40;0.20;;;;;;;14.89;89.00;100795.22;5018879;28;20484;-52
2022/05/21 02:25:33;;;;;;;0.50;0.30;;;;;;;15.07;88.01;100793.63;5024438;28;21386;-53
2022/05/21 02:27:59;;;;;;;0.93;0.83;;;;;;;14.94;88.04;100795.94;5025511;28;20447;-52
2022/05/21 02:30:26;;;;;;;0.40;0.20;;;;;;;14.77;88.48;100799.22;5020319;28;20501;-52
2022/05/21 02:32:53;;;;;;;0.40;0.20;;;;;;;14.85;88.72;100792.72;5018652;28;20484;-54
2022/05/21 02:35:19;;;;;;;0.40;0.20;;;;;;;14.92;88.06;100802.25;5023607;28;20968;-54
2022/05/21 02:40:31;;;;;;;0.40;0.20;;;;;;;15.19;88.00;100805.66;5020934;28;20868;-53
2022/05/21 02:42:58;;;;;;;0.50;0.43;;;;;;;14.89;88.39;100795.22;5025354;28;20460;-53
2022/05/21 02:45:27;;;;;;;1.43;0.70;;;;;;;14.84;89.10;100799.88;5022805;28;20447;-53
2022/05/21 02:47:54;;;;;;;0.40;0.20;;;;;;;14.81;88.87;100797.31;5018311;28;20467;-53
2022/05/21 02:50:33;;;;;;;0.40;0.20;;;;;;;14.95;88.63;100795.00;5020411;28;20514;-53
2022/05/21 02:53:02;;;;;;;0.40;0.20;;;;;;;14.87;89.07;100798.88;5025464;28;20451;-53
2022/05/21 02:55:29;;;;;;;0.40;0.20;;;;;;;14.80;89.61;100792.88;5025274;28;20487;-53
2022/05/21 02:57:56;;;;;;;0.40;0.30;;;;;;;14.97;89.13;100803.84;5019108;28;20468;-52
2022/05/21 03:00:29;;;;;;;4.10;1.07;;;;;;;14.78;88.92;100802.75;5018144;28;20909;-53
2022/05/21 03:02:56;;;;;;;0.40;0.20;;;;;;;14.74;89.36;100802.03;5023608;28;20452;-53
2022/05/21 03:05:25;;;;;;;0.40;0.20;;;;;;;14.79;88.75;100789.31;5025272;28;20451;-54
2022/05/21 03:07:52;;;;;;;0.40;0.20;;;;;;;15.23;87.84;100794.78;5026781;28;20498;-53
2022/05/21 03:10:28;;;;;;;1.37;0.90;;;;;;;14.91;88.56;100800.50;5031924;28;20466;-52
2022/05/21 03:12:58;;;;;;;0.40;0.40;;;;;;;14.98;87.99;100794.00;5040520;28;20456;-53
2022/05/21 03:15:34;;;;;;;0.40;0.20;;;;;;;14.80;88.69;100798.22;5018253;28;20941;-53
2022/05/21 03:18:05;;;;;;;0.40;0.20;;;;;;;14.75;88.46;100793.06;5031465;28;20475;-53
2022/05/21 03:20:32;;;;;;;0.40;0.20;;;;;;;14.99;88.76;100801.09;5019038;28;20835;-53
2022/05/21 03:22:59;;;;;;;0.40;0.20;;;;;;;14.86;87.83;100795.34;5017954;28;20449;-53
2022/05/21 03:25:25;;;;;;;0.60;0.60;;;;;;;14.75;88.83;100792.19;5024382;28;20449;-52
2022/05/21 03:27:52;;;;;;;0.40;0.30;;;;;;;14.66;89.43;100801.41;5025505;28;20507;-53
2022/05/21 03:30:23;;;;;;;0.40;0.30;;;;;;;14.59;90.30;100807.94;5019124;28;20452;-53
2022/05/21 03:32:49;;;;;;;0.40;0.20;;;;;;;14.69;91.15;100798.66;5018410;28;20449;-53
2022/05/21 03:35:16;;;;;;;0.40;0.20;;;;;;;14.46;92.28;100802.16;5023405;28;20488;-53
2022/05/21 03:37:43;;;;;;;0.40;0.20;;;;;;;14.21;92.68;100812.81;5026772;28;20488;-54
2022/05/21 03:40:14;;;;;;;0.40;0.20;;;;;;;13.82;94.59;100811.50;5023366;28;20510;-54
2022/05/21 03:42:40;;;;;;;0.60;0.60;;;;;;;13.41;96.75;100827.09;5024569;28;20819;-54
2022/05/21 03:45:08;;;;;;;0.40;0.20;;;;;;;12.82;100.00;100823.53;5020712;28;20447;-53
2022/05/21 03:47:35;;;;;;;0.40;0.20;;;;;;;12.89;100.00;100826.00;5018033;28;20522;-53
2022/05/21 03:50:03;;;;;;;0.40;0.20;;;;;;;13.53;99.91;100829.38;5022011;28;20452;-54
2022/05/21 03:52:30;;;;;;;0.47;0.47;;;;;;;13.14;99.67;100831.47;5028210;28;20452;-54
2022/05/21 03:54:57;;;;;;;0.40;0.20;;;;;;;13.23;99.95;100825.00;5024569;28;20483;-54
2022/05/21 03:57:24;;;;;;;0.50;0.40;;;;;;;13.46;98.73;100830.50;5021444;28;20468;-54
2022/05/21 03:59:50;;;;;;;0.40;0.20;;;;;;;13.45;98.89;100830.56;5024718;28;20992;-54
2022/05/21 04:02:17;;;;;;;0.40;0.20;;;;;;;13.41;99.30;100835.09;5028025;28;20487;-54
2022/05/21 04:04:44;;;;;;;0.40;0.20;;;;;;;13.46;99.86;100835.84;5025088;28;20482;-54
2022/05/21 04:07:10;;;;;;;0.40;0.20;;;;;;;13.40;100.00;100838.69;5026195;28;20501;-54
2022/05/21 04:09:37;;;;;;;0.40;0.20;;;;;;;13.28;99.70;100842.63;5030155;28;20496;-53
2022/05/21 04:12:04;;;;;;;0.40;0.20;;;;;;;13.27;100.00;100843.53;5047706;28;20941;-53
2022/05/21 04:14:31;;;;;;;0.40;0.40;;;;;;;13.42;100.00;100852.00;5023615;28;20615;-54
2022/05/21 04:17:00;;;;;;;0.40;0.20;;;;;;;13.27;100.00;100850.69;5032827;28;20468;-54
2022/05/21 04:19:28;;;;;;;0.40;0.20;;;;;;;13.29;100.00;100841.72;5022962;28;20456;-54
2022/05/21 04:21:56;;;;;;;27.27;1.13;;;;;;;13.37;100.00;100846.81;5027517;28;20476;-54
2022/05/21 04:24:23;;;;;;;1.13;1.13;;;;;;;13.55;100.00;100851.56;5026788;28;20529;-54
2022/05/21 04:26:50;;;;;;;0.40;0.20;;;;;;;13.43;100.00;100848.41;5021051;28;20475;-54
2022/05/21 04:29:17;;;;;;;1.60;1.33;;;;;;;13.46;100.00;100859.88;5021560;28;20452;-54
2022/05/21 04:31:43;;;;;;;3.03;0.63;;;;;;;13.65;100.00;100865.50;5027759;28;20453;-54
2022/05/21 04:34:11;;;;;;;0.40;0.20;;;;;;;13.77;100.00;100864.25;5027125;28;20477;-54
2022/05/21 04:36:37;;;;;;;0.40;0.30;;;;;;;14.13;98.66;100868.38;5020398;28;20514;-54
2022/05/21 04:39:05;;;;;;;0.40;0.20;;;;;;;14.86;94.99;100867.59;5033809;28;20451;-54
2022/05/21 04:41:32;;;;;;;0.40;0.20;;;;;;;15.80;90.03;100860.38;5021511;28;20505;-54
2022/05/21 04:44:00;;;;;;;0.40;0.20;;;;;;;16.56;84.29;100854.44;5020420;28;20475;-54
2022/05/21 04:46:26;;;;;;;0.40;0.30;;;;;;;17.08;81.96;100860.16;5026486;28;20465;-54
2022/05/21 04:48:53;;;;;;;0.40;0.30;;;;;;;17.61;80.07;100863.94;5027290;28;20463;-54
2022/05/21 04:51:37;;;;;;;1.00;1.00;;;;;;;17.84;78.88;100870.94;5022539;28;20440;-54
2022/05/21 04:54:04;;;;;;;0.40;0.20;;;;;;;17.91;76.79;100873.22;5020639;28;20448;-54
2022/05/21 04:56:32;;;;;;;0.40;0.20;;;;;;;17.91;76.89;100873.22;5023546;28;20492;-54
2022/05/21 04:59:10;;;;;;;0.40;0.20;;;;;;;18.25;75.16;100866.16;5026801;28;20451;-54
2022/05/21 05:01:39;;;;;;;0.40;0.20;;;;;;;18.45;74.09;100867.81;5025224;28;20460;-54
2022/05/21 05:04:09;;;;;;;0.40;0.30;;;;;;;18.58;74.70;100852.75;5020157;28;20452;-54
2022/05/21 05:06:37;;;;;;;0.40;0.20;;;;;;;18.58;74.76;100853.63;5024985;28;20510;-53
2022/05/21 05:09:06;;;;;;;0.40;0.20;;;;;;;18.94;72.29;100864.31;5028965;28;20794;-54
2022/05/21 05:11:33;;;;;;;0.40;0.20;;;;;;;18.97;72.96;100878.56;5046230;28;20478;-54
2022/05/21 05:14:00;;;;;;;3.03;2.83;;;;;;;19.10;71.54;100872.44;5026502;28;20954;-54
2022/05/21 05:16:27;;;;;;;0.73;0.73;;;;;;;18.99;71.26;100868.56;5026128;28;20526;-54
2022/05/21 05:18:54;;;;;;;0.40;0.20;;;;;;;19.14;72.06;100871.31;5026463;28;20449;-54
2022/05/21 05:21:20;;;;;;;0.40;0.20;;;;;;;19.27;71.04;100868.81;5026718;28;20448;-54
2022/05/21 05:23:47;;;;;;;0.40;0.20;;;;;;;19.32;69.78;100876.63;5020407;28;20456;-54
2022/05/21 05:26:13;;;;;;;0.40;0.20;;;;;;;19.03;69.91;100873.69;5019735;28;20512;-54
2022/05/21 05:28:40;;;;;;;0.40;0.20;;;;;;;19.59;68.38;100867.03;5025706;28;20503;-54
2022/05/21 05:31:07;;;;;;;0.40;0.20;;;;;;;19.57;68.44;100865.38;5026433;28;20511;-54
2022/05/21 05:33:33;;;;;;;0.40;0.20;;;;;;;19.29;69.46;100858.81;5025802;28;20473;-54
2022/05/21 05:36:00;;;;;;;0.40;0.20;;;;;;;19.63;68.54;100854.25;5026154;28;20521;-54
2022/05/21 05:38:27;;;;;;;0.40;0.20;;;;;;;20.13;67.36;100860.25;5032753;28;20448;-54
2022/05/21 05:40:55;;;;;;;0.40;0.20;;;;;;;19.75;66.91;100859.81;5019238;28;20460;-54
2022/05/21 05:43:22;;;;;;;0.60;0.60;;;;;;;20.06;66.66;100866.13;5024609;28;20803;-54
2022/05/21 05:45:51;;;;;;;0.40;0.20;;;;;;;20.16;66.59;100874.56;5026328;28;20767;-54
2022/05/21 05:48:19;;;;;;;0.40;0.20;;;;;;;19.78;66.42;100873.13;5021868;28;20447;-54
2022/05/21 05:50:53;;;;;;;0.40;0.20;;;;;;;19.71;67.99;100869.03;5019332;28;20454;-54
2022/05/21 05:53:20;;;;;;;0.40;0.20;;;;;;;19.85;67.75;100867.38;5022830;28;20479;-54
2022/05/21 05:55:48;;;;;;;0.40;0.20;;;;;;;19.73;68.15;100875.19;5025777;28;20521;-54
2022/05/21 06:01:00;;;;;;;0.40;0.20;;;;;;;19.59;68.92;100867.03;5019266;28;20454;-54
2022/05/21 06:03:26;;;;;;;0.40;0.20;;;;;;;19.57;67.97;100865.38;5019244;28;21244;-54
2022/05/21 06:05:53;;;;;;;0.40;0.23;;;;;;;19.56;68.61;100869.03;5025443;28;20475;-54
2022/05/21 06:08:20;;;;;;;0.40;0.20;;;;;;;19.36;67.67;100862.91;5030424;28;20447;-54
2022/05/21 06:10:49;;;;;;;0.40;0.20;;;;;;;19.38;69.44;100873.59;5035104;28;20443;-54
2022/05/21 06:13:16;;;;;;;0.40;0.20;;;;;;;19.76;68.48;100876.88;5036952;28;20497;-54
2022/05/21 06:15:43;;;;;;;0.40;0.20;;;;;;;19.70;66.42;100875.38;5019629;28;20965;-54
2022/05/21 06:18:12;;;;;;;0.40;0.20;;;;;;;19.89;66.12;100877.91;5031387;28;20517;-54
2022/05/21 06:20:41;;;;;;;0.50;0.30;;;;;;;19.65;67.34;100887.41;5019661;28;20451;-54
2022/05/21 06:23:08;;;;;;;0.40;0.20;;;;;;;19.73;66.10;100877.91;5029431;28;20456;-54
2022/05/21 06:25:34;;;;;;;0.57;0.57;;;;;;;19.70;66.21;100888.00;5017846;28;20498;-54
2022/05/21 06:28:03;;;;;;;0.40;0.20;;;;;;;19.90;67.74;100889.56;5025322;28;20455;-54
2022/05/21 06:30:32;;;;;;;0.40;0.20;;;;;;;19.54;69.74;100890.66;5031560;28;20456;-54
2022/05/21 06:32:59;;;;;;;0.40;0.20;;;;;;;19.49;68.05;100887.38;5017888;28;20456;-54
2022/05/21 06:35:27;;;;;;;3.77;0.87;;;;;;;19.50;68.09;100889.09;5021734;28;20997;-54
2022/05/21 06:37:54;;;;;;;0.40;0.20;;;;;;;19.49;68.07;100885.53;5027639;28;20488;-54
2022/05/21 06:40:21;;;;;;;0.40;0.20;;;;;;;19.77;66.39;100878.63;5021919;28;20449;-54
2022/05/21 06:42:47;;;;;;;0.40;0.20;;;;;;;20.20;65.59;100876.13;5025602;28;20452;-54
2022/05/21 06:45:15;;;;;;;0.40;0.20;;;;;;;20.19;66.48;100863.56;5022144;28;20787;-54
2022/05/21 06:47:41;;;;;;;0.40;0.20;;;;;;;20.15;64.86;100871.00;5023748;28;20472;-54
2022/05/21 06:50:08;;;;;;;0.40;0.20;;;;;;;19.82;67.49;100871.13;5022772;28;20452;-54
2022/05/21 06:52:36;;;;;;;0.40;0.20;;;;;;;20.12;65.10;100871.16;5018698;28;20510;-54
2022/05/21 06:55:08;;;;;;;0.40;0.20;;;;;;;19.98;65.13;100873.78;5027586;28;20479;-54
2022/05/21 06:57:35;;;;;;;0.40;0.20;;;;;;;20.08;65.96;100872.31;5025901;28;20535;-54
2022/05/21 07:00:04;;;;;;;0.40;0.20;;;;;;;19.41;66.59;100879.69;5024518;28;20451;-54
2022/05/21 07:02:31;;;;;;;0.40;0.20;;;;;;;19.78;67.15;100874.97;5023783;28;20451;-54
2022/05/21 07:07:44;;;;;;;0.40;0.27;;;;;;;19.50;66.35;100879.19;5026126;28;20497;-54
2022/05/21 07:10:17;;;;;;;0.40;0.20;;;;;;;19.56;66.82;100882.50;5031434;28;20451;-54
2022/05/21 07:12:43;;;;;;;0.40;0.20;;;;;;;19.63;66.56;100879.41;5041870;28;20509;-54
2022/05/21 07:15:10;;;;;;;0.40;0.20;;;;;;;19.70;68.13;100874.50;5023918;28;20452;-54
2022/05/21 07:17:37;;;;;;;0.40;0.20;;;;;;;19.59;68.23;100866.16;5025555;28;20557;-54
2022/05/21 07:20:06;;;;;;;0.40;0.20;;;;;;;19.13;68.40;100866.00;5028525;28;20460;-54
2022/05/21 07:22:33;;;;;;;0.40;0.20;;;;;;;19.34;69.08;100863.97;5031140;28;20509;-54
2022/05/21 07:25:02;;;;;;;0.40;0.30;;;;;;;19.29;70.05;100872.28;5017996;28;20877;-54
2022/05/21 07:27:29;;;;;;;0.40;0.30;;;;;;;19.41;68.38;100871.59;5024032;28;20469;-55
2022/05/21 07:29:55;;;;;;;0.40;0.20;;;;;;;19.93;67.96;100867.81;5028104;28;20448;-55
2022/05/21 07:32:27;;;;;;;0.40;0.20;;;;;;;19.32;69.09;100865.84;5026526;28;20451;-55
2022/05/21 07:35:14;;;;;;;0.40;0.20;;;;;;;18.98;68.72;100875.78;5021799;28;20448;-55
2022/05/21 07:37:46;;;;;;;0.40;0.20;;;;;;;18.88;68.23;100879.91;5033653;28;20522;-55
2022/05/21 07:40:15;;;;;;;0.40;0.20;;;;;;;18.89;68.90;100892.44;5026150;28;20505;-55
2022/05/21 07:42:41;;;;;;;0.40;0.20;;;;;;;19.50;65.21;100881.00;5028591;28;20452;-55
2022/05/21 07:45:15;;;;;;;0.40;0.30;;;;;;;19.45;66.13;100870.47;5024349;28;20451;-55
2022/05/21 07:47:42;;;;;;;0.40;0.20;;;;;;;20.53;63.13;100871.41;5021586;28;20496;-55
2022/05/21 07:50:09;;;;;;;0.40;0.20;;;;;;;20.35;61.32;100881.47;5024932;28;20567;-56
2022/05/21 07:52:37;;;;;;;0.40;0.20;;;;;;;19.63;62.21;100879.41;5028076;28;20459;-55
2022/05/21 07:55:05;;;;;;;0.40;0.20;;;;;;;19.64;61.98;100885.66;5025473;28;20534;-56
2022/05/21 07:57:31;;;;;;;0.40;0.20;;;;;;;19.61;63.26;100892.09;5020942;28;20499;-55
2022/05/21 07:59:58;;;;;;;0.40;0.20;;;;;;;19.95;63.49;100888.34;5023654;28;20452;-56
2022/05/21 08:02:25;;;;;;;0.40;0.20;;;;;;;19.72;63.60;100881.56;5010909;28;20452;-55
2022/05/21 08:04:52;;;;;;;0.40;0.20;;;;;;;19.64;65.07;100886.53;5025852;28;20452;-55
2022/05/21 08:07:18;;;;;;;0.40;0.20;;;;;;;19.42;65.68;100889.53;5026911;28;21035;-55
2022/05/21 08:09:45;;;;;;;0.40;0.20;;;;;;;19.10;65.86;100893.13;5031229;28;20478;-55
2022/05/21 08:12:14;;;;;;;0.40;0.20;;;;;;;19.09;65.02;100884.16;5047970;28;20448;-55
2022/05/21 08:14:44;;;;;;;0.40;0.20;;;;;;;19.69;65.99;100884.44;5022503;28;20452;-55
2022/05/21 08:17:12;;;;;;;0.40;0.20;;;;;;;20.37;62.57;100884.06;5033325;28;20496;-56
2022/05/21 08:19:40;;;;;;;0.40;0.30;;;;;;;20.33;63.24;100886.09;5021645;28;20507;-56
2022/05/21 08:27:38;;;;;;;0.50;0.30;;;;;;;20.01;62.78;100877.22;5025916;28;20463;-55
2022/05/21 08:30:06;;;;;;;0.40;0.20;;;;;;;19.98;63.29;100887.28;5020585;28;20479;-56
2022/05/21 08:32:32;;;;;;;0.40;0.20;;;;;;;19.54;65.21;100882.56;5022604;28;20868;-56
2022/05/21 08:35:03;;;;;;;0.40;0.20;;;;;;;19.58;65.28;100889.56;5027539;28;20484;-55
2022/05/21 08:37:30;;;;;;;0.40;0.20;;;;;;;20.36;63.60;100885.91;5026078;28;20495;-56
2022/05/21 08:39:57;;;;;;;0.40;0.20;;;;;;;19.80;63.64;100900.88;5028120;28;20449;-56
2022/05/21 08:42:40;;;;;;;0.40;0.20;;;;;;;20.25;63.86;100901.88;5026742;28;20513;-56
2022/05/21 08:45:20;;;;;;;0.50;0.40;;;;;;;20.38;63.44;100889.38;5025685;28;20472;-56
2022/05/21 08:47:58;;;;;;;0.50;0.50;;;;;;;20.17;62.52;100898.78;5027112;28;20522;-56
2022/05/21 08:50:27;;;;;;;0.40;0.20;;;;;;;20.33;62.22;100893.31;5026125;28;20443;-55
2022/05/21 08:52:58;;;;;;;1.43;0.50;;;;;;;20.19;63.32;100883.34;5020236;28;21094;-55
2022/05/21 08:55:32;;;;;;;0.40;0.20;;;;;;;19.77;64.59;100892.97;5020698;28;20449;-55
2022/05/21 08:58:07;;;;;;;0.50;0.50;;;;;;;20.33;64.84;100896.03;5021354;28;20592;-56
2022/05/21 09:00:42;;;;;;;0.40;0.20;;;;;;;20.86;63.51;100890.13;5020093;28;20452;-55
2022/05/21 09:03:11;;;;;;;0.50;0.40;;;;;;;20.48;62.95;100887.03;5023478;28;20444;-55
2022/05/21 09:05:43;;;;;;;0.40;0.20;;;;;;;20.67;60.84;100879.53;5026642;28;20523;-55
2022/05/21 09:08:16;;;;;;;0.40;0.20;;;;;;;20.49;62.00;100879.81;5030786;28;20995;-56
2022/05/21 09:10:53;;;;;;;0.40;0.20;;;;;;;20.82;62.49;100876.88;5036388;28;20443;-55
2022/05/21 09:13:35;;;;;;;0.40;0.20;;;;;;;20.72;59.80;100876.59;5037976;28;20447;-56
2022/05/21 09:18:55;;;;;;;0.40;0.30;;;;;;;21.11;60.78;100866.97;4998809;28;20460;-55
2022/05/21 09:21:26;;;;;;;0.50;0.40;;;;;;;21.14;58.32;100874.88;5026518;28;20538;-56
2022/05/21 09:23:56;;;;;;;0.40;0.20;;;;;;;21.16;57.87;100871.09;5020430;28;20448;-56
2022/05/21 09:26:47;;;;;;;0.70;0.50;;;;;;;21.54;58.62;100878.66;5019481;28;20469;-56
2022/05/21 09:29:25;;;;;;;0.40;0.20;;;;;;;21.73;57.46;100872.88;5008760;28;20457;-56
2022/05/21 09:31:54;;;;;;;0.40;0.23;;;;;;;21.31;57.00;100871.13;5019861;28;20448;-56
2022/05/21 09:34:21;;;;;;;0.40;0.20;;;;;;;21.06;57.70;100864.53;5019282;28;20479;-56
2022/05/21 09:36:47;;;;;;;0.50;0.43;;;;;;;20.93;58.46;100874.38;5032045;28;20998;-56
2022/05/21 09:39:35;;;;;;;0.57;0.57;;;;;;;21.36;58.17;100869.84;5032645;28;20451;-56
2022/05/21 09:45:22;;;;;;;0.50;0.30;;;;;;;22.63;56.87;100854.13;5020909;28;20418;-56
2022/05/21 09:47:52;;;;;;;0.40;0.20;;;;;;;22.41;57.88;100873.72;5019032;28;20887;-56
2022/05/21 09:50:23;;;;;;;0.40;0.30;;;;;;;22.67;54.42;100865.63;5021164;28;20448;-56
2022/05/21 09:52:51;;;;;;;0.40;0.20;;;;;;;21.39;56.60;100861.56;5025992;28;20530;-56
2022/05/21 09:55:22;;;;;;;0.40;0.20;;;;;;;21.05;57.98;100870.03;5025144;28;20452;-56
2022/05/21 09:58:06;;;;;;;0.50;0.40;;;;;;;22.13;58.56;100877.44;5019812;28;20503;-56
2022/05/21 10:00:37;;;;;;;0.40;0.20;;;;;;;22.09;54.25;100867.78;5019235;28;20476;-55
2022/05/21 10:03:07;;;;;;;0.40;0.30;;;;;;;21.81;57.29;100870.56;5023347;28;20841;-56
2022/05/21 10:05:46;;;;;;;0.40;0.20;;;;;;;22.37;54.55;100868.63;5025782;28;20428;-56
2022/05/21 10:11:25;;;;;;;1.13;1.03;;;;;;;22.66;53.07;100864.75;5042268;28;20485;-56
2022/05/21 10:13:59;;;;;;;0.40;0.20;;;;;;;23.14;52.54;100859.56;5027766;28;20494;-56
2022/05/21 10:16:36;;;;;;;0.40;0.30;;;;;;;22.77;52.68;100862.16;5025657;28;20561;-56
2022/05/21 10:19:41;;;;;;;0.50;0.40;;;;;;;23.39;53.26;100865.94;5021121;28;20447;-56
2022/05/21 10:22:44;;;;;;;0.40;0.20;;;;;;;22.77;53.20;100864.88;5019029;28;20505;-55
2022/05/21 10:25:22;;;;;;;0.40;0.20;;;;;;;22.59;51.41;100866.16;5019011;28;20447;-56
2022/05/21 10:27:58;;;;;;;0.40;0.30;;;;;;;22.53;54.40;100872.00;5018986;28;20534;-56
2022/05/21 10:30:24;;;;;;;0.40;0.20;;;;;;;22.10;54.64;100866.81;5024397;28;20448;-56
2022/05/21 10:33:23;;;;;;;0.50;0.40;;;;;;;21.71;55.68;100870.28;5025754;28;20452;-54
2022/05/21 10:35:56;;;;;;;0.40;0.30;;;;;;;21.75;56.39;100858.28;5025143;28;20443;-54
2022/05/21 10:38:25;;;;;;;0.40;0.20;;;;;;;22.31;53.71;100866.31;5031557;28;20448;-57
2022/05/21 10:41:19;;;;;;;0.40;0.20;;;;;;;22.21;53.02;100855.25;5019258;28;20879;-54
2022/05/21 10:43:58;;;;;;;0.40;0.20;;;;;;;22.12;51.83;100864.00;5020379;28;20445;-54
2022/05/21 10:46:52;;;;;;;0.40;0.20;;;;;;;22.22;54.15;100854.28;5025320;28;20522;-54
2022/05/21 10:49:23;;;;;;;0.40;0.20;;;;;;;22.14;54.48;100859.34;5025449;28;20452;-54
2022/05/21 10:52:02;;;;;;;0.40;0.20;;;;;;;22.35;52.98;100849.75;5023882;28;20454;-54
2022/05/21 10:54:47;;;;;;;0.40;0.20;;;;;;;22.07;53.05;100853.47;5018760;28;20475;-54
2022/05/21 10:57:28;;;;;;;0.40;0.20;;;;;;;22.60;52.47;100850.75;5018480;28;20913;-54
2022/05/21 11:00:29;;;;;;;0.40;0.30;;;;;;;22.86;53.81;100841.69;5022005;28;20456;-55
2022/05/21 11:03:08;;;;;;;0.40;0.27;;;;;;;23.05;49.27;100835.84;5017261;28;20505;-54
2022/05/21 11:05:49;;;;;;;0.40;0.30;;;;;;;23.22;50.14;100831.91;5022580;28;20455;-55
2022/05/21 11:08:31;;;;;;;2.50;0.60;;;;;;;23.22;48.92;100835.47;5035550;28;20483;-55
2022/05/21 11:11:22;;;;;;;0.40;0.20;;;;;;;22.55;50.71;100836.66;5042195;28;20442;-56
2022/05/21 11:14:02;;;;;;;0.50;0.43;;;;;;;22.26;50.45;100841.38;5032757;28;20441;-56
2022/05/21 11:16:39;;;;;;;0.80;0.60;;;;;;;22.70;49.87;100833.75;5029057;28;20498;-56
2022/05/21 11:19:17;;;;;;;0.60;0.40;;;;;;;22.99;49.47;100830.84;5027587;28;20483;-56
2022/05/21 11:21:46;;;;;;;0.40;0.20;;;;;;;22.93;49.85;100832.16;5028808;28;20452;-56
2022/05/21 11:25:00;;;;;;;0.50;0.30;;;;;;;23.20;50.60;100826.59;5025773;28;20509;-56
2022/05/21 11:27:36;;;;;;;0.60;0.60;;;;;;;23.29;49.93;100830.47;4945680;29;20480;-57
2022/05/21 11:30:07;;;;;;;0.40;0.27;;;;;;;23.43;46.71;100827.59;5019666;28;20462;-56
2022/05/21 11:38:35;;;;;;;0.40;0.20;;;;;;;22.98;48.17;100823.69;5034875;28;20486;-56
2022/05/21 11:41:30;;;;;;;0.40;0.30;;;;;;;23.17;46.42;100825.94;5021850;28;20487;-56
2022/05/21 11:47:07;;;;;;;0.40;0.20;;;;;;;23.61;46.47;100829.00;5026334;28;20498;-57
2022/05/21 11:49:44;;;;;;;0.40;0.30;;;;;;;23.22;47.10;100815.63;5021560;28;20872;-57
2022/05/21 11:52:26;;;;;;;0.40;0.30;;;;;;;23.73;47.34;100818.22;5021458;28;20444;-56
2022/05/21 11:54:53;;;;;;;0.40;0.20;;;;;;;23.60;48.23;100812.84;5025448;28;20957;-57
2022/05/21 11:57:41;;;;;;;0.40;0.30;;;;;;;23.73;47.47;100804.66;5028183;28;22557;-56
2022/05/21 12:00:09;;;;;;;0.40;0.20;;;;;;;24.17;45.87;100815.69;5027156;28;20471;-56
2022/05/21 12:02:38;;;;;;;5.70;1.23;;;;;;;23.97;45.04;100827.22;5021217;28;20487;-56
2022/05/21 12:05:08;;;;;;;0.40;0.30;;;;;;;23.39;45.85;100814.38;5021674;28;20431;-56
2022/05/21 12:07:41;;;;;;;2.60;2.50;;;;;;;23.73;46.65;100813.66;5026970;28;20522;-56
2022/05/21 12:10:28;;;;;;;0.40;0.20;;;;;;;24.40;45.49;100813.09;5030392;28;20933;-56
2022/05/21 12:13:03;;;;;;;0.40;0.20;;;;;;;24.55;44.00;100806.47;5023102;28;20446;-56
2022/05/21 12:15:52;;;;;;;0.50;0.40;;;;;;;24.57;43.77;100801.75;5027855;28;20503;-57